createdAt,value
2022-11-28T00:00:06.313Z,96445.47
2022-11-28T00:02:32.797Z,96438.13
2022-11-28T00:04:59.231Z,96440.38
2022-11-28T00:07:25.704Z,96431.00
2022-11-28T00:09:52.846Z,96429.84
2022-11-28T00:12:19.174Z,96428.66
2022-11-28T00:14:45.525Z,96425.69
2022-11-28T00:17:11.846Z,96421.56
2022-11-28T00:19:38.181Z,96417.06
2022-11-28T00:22:04.570Z,96413.00
2022-11-28T00:24:30.975Z,96404.59
2022-11-28T00:26:57.295Z,96402.81
2022-11-28T00:29:23.621Z,96401.06
2022-11-28T00:31:50.061Z,96397.16
2022-11-28T00:34:16.512Z,96392.38
2022-11-28T00:36:45.413Z,96388.47
2022-11-28T00:39:12.193Z,96381.00
2022-11-28T00:41:38.583Z,96376.50
2022-11-28T00:44:05.229Z,96368.44
2022-11-28T00:46:31.639Z,96365.94
2022-11-28T00:48:59.149Z,96373.78
2022-11-28T00:51:28.463Z,96372.13
2022-11-28T00:53:57.303Z,96373.44
2022-11-28T00:56:26.852Z,96367.50
2022-11-28T00:58:53.386Z,96375.22
2022-11-28T01:01:29.544Z,96379.22
2022-11-28T01:03:57.472Z,96374.00
2022-11-28T01:06:28.123Z,96378.88
2022-11-28T01:08:55.525Z,96374.00
2022-11-28T01:11:22.151Z,96389.19
2022-11-28T01:13:48.851Z,96383.13
2022-11-28T01:16:15.862Z,96390.94
2022-11-28T01:18:42.504Z,96396.06
2022-11-28T01:21:09.496Z,96393.69
2022-11-28T01:23:36.275Z,96387.88
2022-11-28T01:26:04.348Z,96381.47
2022-11-28T01:28:30.814Z,96383.13
2022-11-28T01:30:57.257Z,96373.19
2022-11-28T01:33:23.617Z,96365.13
2022-11-28T01:35:58.097Z,96376.16
2022-11-28T01:38:25.465Z,96367.50
2022-11-28T01:40:52.832Z,96367.50
2022-11-28T01:43:21.289Z,96360.97
2022-11-28T01:45:47.962Z,96362.78
2022-11-28T01:48:18.131Z,96364.19
2022-11-28T01:50:47.739Z,96372.13
2022-11-28T01:53:14.563Z,96378.41
2022-11-28T01:55:52.373Z,96372.72
2022-11-28T01:58:18.861Z,96369.66
2022-11-28T02:00:46.524Z,96356.13
2022-11-28T02:03:20.329Z,96364.06
2022-11-28T02:05:49.985Z,96359.31
2022-11-28T02:08:16.346Z,96353.41
2022-11-28T02:11:18.412Z,96350.94
2022-11-28T02:14:05.464Z,96351.28
2022-11-28T02:16:43.168Z,96367.03
2022-11-28T02:19:47.101Z,96371.31
2022-11-28T02:22:38.699Z,96371.06
2022-11-28T02:25:47.430Z,96369.66
2022-11-28T02:28:30.790Z,96355.41
2022-11-28T02:31:33.481Z,96349.25
2022-11-28T02:34:08.386Z,96348.78
2022-11-28T02:36:46.090Z,96345.94
2022-11-28T02:39:31.769Z,96339.31
2022-11-28T02:42:24.533Z,96333.25
2022-11-28T02:45:13.792Z,96323.75
2022-11-28T02:47:53.836Z,96323.91
2022-11-28T02:50:32.330Z,96320.09
2022-11-28T02:53:14.493Z,96313.59
2022-11-28T02:55:42.872Z,96311.00
2022-11-28T02:58:10.713Z,96297.50
2022-11-28T03:00:39.783Z,96296.75
2022-11-28T03:03:21.390Z,96296.66
2022-11-28T03:06:18.742Z,96299.25
2022-11-28T03:08:59.062Z,96292.13
2022-11-28T03:11:47.486Z,96292.13
2022-11-28T03:14:24.146Z,96294.28
2022-11-28T03:17:19.704Z,96296.06
2022-11-28T03:20:16.817Z,96295.00
2022-11-28T03:23:04.603Z,96287.44
2022-11-28T03:25:47.521Z,96284.81
2022-11-28T03:28:26.085Z,96284.69
2022-11-28T03:31:01.880Z,96292.25
2022-11-28T03:33:33.265Z,96295.00
2022-11-28T03:36:12.517Z,96291.72
2022-11-28T03:38:42.849Z,96285.41
2022-11-28T03:41:18.930Z,96285.75
2022-11-28T03:43:52.139Z,96285.06
2022-11-28T03:46:23.382Z,96277.59
2022-11-28T03:48:54.490Z,96274.38
2022-11-28T03:51:28.955Z,96272.72
2022-11-28T03:54:10.683Z,96271.78
2022-11-28T03:56:37.357Z,96277.25
2022-11-28T03:59:16.905Z,96294.44
2022-11-28T04:02:11.890Z,96285.44
2022-11-28T04:04:53.313Z,96283.88
2022-11-28T04:07:28.763Z,96286.72
2022-11-28T04:10:13.817Z,96280.69
2022-11-28T04:13:15.524Z,96282.22
2022-11-28T04:15:59.211Z,96299.63
2022-11-28T04:18:47.865Z,96288.38
2022-11-28T04:21:29.425Z,96279.28
2022-11-28T04:24:01.257Z,96281.38
2022-11-28T04:26:33.086Z,96274.16
2022-11-28T04:29:02.427Z,96282.81
2022-11-28T04:31:31.098Z,96281.53
2022-11-28T04:34:02.342Z,96281.03
2022-11-28T04:36:30.289Z,96275.94
2022-11-28T04:38:59.537Z,96273.00
2022-11-28T04:41:40.417Z,96276.91
2022-11-28T04:44:18.122Z,96270.50
2022-11-28T04:46:55.497Z,96282.56
2022-11-28T04:49:23.537Z,96272.75
2022-11-28T04:52:17.773Z,96275.97
2022-11-28T04:55:03.870Z,96275.34
2022-11-28T04:57:35.356Z,96256.28
2022-11-28T05:00:04.525Z,96267.78
2022-11-28T05:02:32.272Z,96264.00
2022-11-28T05:04:59.587Z,96268.97
2022-11-28T05:07:26.029Z,96255.47
2022-11-28T05:09:52.460Z,96260.69
2022-11-28T05:12:18.798Z,96255.94
2022-11-28T05:14:45.144Z,96262.09
2022-11-28T05:17:13.105Z,96252.16
2022-11-28T05:19:39.609Z,96261.63
2022-11-28T05:22:06.405Z,96267.41
2022-11-28T05:24:32.737Z,96258.09
2022-11-28T05:26:59.247Z,96257.34
2022-11-28T05:29:25.819Z,96265.28
2022-11-28T05:31:52.244Z,96264.00
2022-11-28T05:34:18.631Z,96261.38
2022-11-28T05:36:45.077Z,96250.28
2022-11-28T05:39:11.409Z,96248.22
2022-11-28T05:41:37.740Z,96245.06
2022-11-28T05:44:04.124Z,96248.34
2022-11-28T05:46:30.504Z,96248.34
2022-11-28T05:48:56.898Z,96244.56
2022-11-28T05:51:23.231Z,96241.25
2022-11-28T05:53:49.663Z,96234.84
2022-11-28T05:56:19.167Z,96240.19
2022-11-28T05:58:45.992Z,96249.75
2022-11-28T06:01:18.573Z,96250.38
2022-11-28T06:03:45.609Z,96237.47
2022-11-28T06:06:17.512Z,96252.59
2022-11-28T06:08:44.671Z,96256.47
2022-11-28T06:11:12.059Z,96249.72
2022-11-28T06:13:38.561Z,96250.06
2022-11-28T06:16:10.151Z,96262.50
2022-11-28T06:18:37.046Z,96259.34
2022-11-28T06:21:04.857Z,96263.59
2022-11-28T06:23:32.872Z,96260.66
2022-11-28T06:26:07.897Z,96257.00
2022-11-28T06:28:34.930Z,96251.34
2022-11-28T06:31:02.132Z,96255.94
2022-11-28T06:33:28.917Z,96256.19
2022-11-28T06:36:02.302Z,96250.50
2022-11-28T06:38:29.037Z,96251.91
2022-11-28T06:41:02.482Z,96259.94
2022-11-28T06:43:29.612Z,96258.53
2022-11-28T06:45:56.672Z,96248.59
2022-11-28T06:48:23.970Z,96250.72
2022-11-28T06:50:51.159Z,96259.16
2022-11-28T06:53:18.257Z,96254.38
2022-11-28T06:55:45.645Z,96252.03
2022-11-28T06:58:12.088Z,96252.75
2022-11-28T07:00:39.142Z,96256.03
2022-11-28T07:03:05.477Z,96250.09
2022-11-28T07:05:31.968Z,96255.19
2022-11-28T07:07:58.567Z,96253.28
2022-11-28T07:10:25.437Z,96257.78
2022-11-28T07:13:04.906Z,96253.72
2022-11-28T07:15:32.000Z,96268.28
2022-11-28T07:17:58.334Z,96264.88
2022-11-28T07:20:24.687Z,96264.44
2022-11-28T07:22:51.073Z,96267.28
2022-11-28T07:25:17.824Z,96270.13
2022-11-28T07:27:44.242Z,96263.50
2022-11-28T07:30:11.098Z,96260.78
2022-11-28T07:32:41.146Z,96262.66
2022-11-28T07:35:08.774Z,96263.25
2022-11-28T07:37:35.608Z,96257.00
2022-11-28T07:40:02.205Z,96257.09
2022-11-28T07:42:28.545Z,96260.78
2022-11-28T07:44:54.905Z,96262.44
2022-11-28T07:47:22.101Z,96256.75
2022-11-28T07:49:48.440Z,96248.38
2022-11-28T07:52:15.225Z,96249.44
2022-11-28T07:54:41.704Z,96243.88
2022-11-28T07:57:12.523Z,96247.88
2022-11-28T07:59:39.690Z,96249.06
2022-11-28T08:02:07.358Z,96259.75
2022-11-28T08:04:33.799Z,96268.91
2022-11-28T08:07:00.187Z,96271.56
2022-11-28T08:09:26.754Z,96273.91
2022-11-28T08:11:53.097Z,96274.41
2022-11-28T08:14:20.403Z,96271.03
2022-11-28T08:16:46.820Z,96268.22
2022-11-28T08:19:13.520Z,96268.72
2022-11-28T08:21:40.033Z,96271.06
2022-11-28T08:24:07.959Z,96270.38
2022-11-28T08:26:34.894Z,96269.66
2022-11-28T08:29:02.197Z,96277.00
2022-11-28T08:31:34.277Z,96273.81
2022-11-28T08:34:02.722Z,96264.47
2022-11-28T08:36:29.603Z,96258.06
2022-11-28T08:39:22.256Z,96263.28
2022-11-28T08:41:42.716Z,96257.59
2022-11-28T08:44:09.090Z,96263.03
2022-11-28T08:46:36.214Z,96260.56
2022-11-28T08:49:04.595Z,96252.75
2022-11-28T08:51:31.653Z,96255.69
2022-11-28T08:53:59.753Z,96252.38
2022-11-28T08:56:27.075Z,96249.28
2022-11-28T08:58:53.790Z,96248.31
2022-11-28T09:01:22.649Z,96240.97
2022-11-28T09:03:49.629Z,96252.59
2022-11-28T09:06:17.150Z,96243.69
2022-11-28T09:08:43.956Z,96248.91
2022-11-28T09:11:12.548Z,96243.28
2022-11-28T09:13:39.392Z,96250.84
2022-11-28T09:16:06.062Z,96248.34
2022-11-28T09:18:32.474Z,96253.69
2022-11-28T09:21:11.434Z,96251.22
2022-11-28T09:23:40.778Z,96252.03
2022-11-28T09:26:12.150Z,96242.91
2022-11-28T09:28:38.714Z,96247.75
2022-11-28T09:31:06.191Z,96236.88
2022-11-28T09:33:33.112Z,96231.88
2022-11-28T09:36:04.575Z,96238.63
2022-11-28T09:38:30.876Z,96242.09
2022-11-28T09:40:57.265Z,96237.31
2022-11-28T09:43:31.568Z,96242.19
2022-11-28T09:46:00.276Z,96231.66
2022-11-28T09:48:32.661Z,96233.38
2022-11-28T09:51:19.245Z,96236.22
2022-11-28T09:54:14.250Z,96226.00
2022-11-28T09:56:41.105Z,96227.41
2022-11-28T09:59:22.805Z,96229.28
2022-11-28T10:02:16.383Z,96233.75
2022-11-28T10:05:33.886Z,96227.78
2022-11-28T10:08:18.685Z,96231.13
2022-11-28T10:11:16.931Z,96229.34
2022-11-28T10:14:11.110Z,96215.25
2022-11-28T10:16:40.361Z,96215.69
2022-11-28T10:19:31.715Z,96218.50
2022-11-28T10:22:02.811Z,96219.97
2022-11-28T10:24:47.237Z,96220.97
2022-11-28T10:27:15.743Z,96217.28
2022-11-28T10:29:57.460Z,96218.81
2022-11-28T10:32:37.742Z,96214.41
2022-11-28T10:35:26.753Z,96204.53
2022-11-28T10:37:54.657Z,96205.97
2022-11-28T10:40:44.158Z,96195.44
2022-11-28T10:43:25.112Z,96195.69
2022-11-28T10:46:06.688Z,96191.91
2022-11-28T10:48:59.188Z,96202.22
2022-11-28T10:51:40.790Z,96198.13
2022-11-28T10:54:38.710Z,96184.38
2022-11-28T10:57:20.294Z,96180.81
2022-11-28T10:59:55.942Z,96179.91
2022-11-28T11:02:33.830Z,96174.53
2022-11-28T11:05:00.519Z,96173.56
2022-11-28T11:10:12.144Z,96172.53
2022-11-28T11:12:38.950Z,96171.06
2022-11-28T11:15:36.091Z,96170.78
2022-11-28T11:18:36.077Z,96172.09
2022-11-28T11:21:21.861Z,96169.91
2022-11-28T11:23:49.785Z,96162.88
2022-11-28T11:26:27.445Z,96159.34
2022-11-28T11:28:54.833Z,96158.63
2022-11-28T11:31:27.762Z,96150.78
2022-11-28T11:34:03.290Z,96153.97
2022-11-28T11:36:32.653Z,96154.19
2022-11-28T11:39:07.197Z,96151.47
2022-11-28T11:41:34.439Z,96154.59
2022-11-28T11:44:20.305Z,96152.25
2022-11-28T11:46:54.463Z,96154.09
2022-11-28T11:49:33.504Z,96148.75
2022-11-28T11:52:04.258Z,96145.16
2022-11-28T11:54:31.081Z,96136.25
2022-11-28T11:57:24.903Z,96142.88
2022-11-28T11:59:51.356Z,96136.25
2022-11-28T12:02:55.588Z,96136.41
2022-11-28T12:05:52.352Z,96134.59
2022-11-28T12:08:38.004Z,96136.53
2022-11-28T12:11:21.808Z,96126.91
2022-11-28T12:13:49.622Z,96125.53
2022-11-28T12:16:41.476Z,96127.50
2022-11-28T12:19:26.315Z,96125.56
2022-11-28T12:22:25.251Z,96129.81
2022-11-28T12:25:08.661Z,96132.72
2022-11-28T12:27:46.767Z,96135.59
2022-11-28T12:30:25.329Z,96130.91
2022-11-28T12:33:24.241Z,96128.88
2022-11-28T12:36:19.098Z,96128.72
2022-11-28T12:38:48.387Z,96118.44
2022-11-28T12:41:33.046Z,96115.94
2022-11-28T12:44:31.543Z,96119.53
2022-11-28T12:47:18.457Z,96112.78
2022-11-28T12:50:21.277Z,96111.38
2022-11-28T12:53:00.267Z,96118.69
2022-11-28T12:55:36.879Z,96118.00
2022-11-28T12:58:24.256Z,96114.16
2022-11-28T13:01:14.301Z,96110.28
2022-11-28T13:03:55.894Z,96102.72
2022-11-28T13:06:51.375Z,96108.91
2022-11-28T13:09:28.756Z,96105.91
2022-11-28T13:12:05.963Z,96097.63
2022-11-28T13:14:56.371Z,96091.56
2022-11-28T13:17:50.383Z,96093.75
2022-11-28T13:20:45.406Z,96086.88
2022-11-28T13:23:28.486Z,96096.53
2022-11-28T13:26:18.137Z,96095.94
2022-11-28T13:29:27.070Z,96094.34
2022-11-28T13:32:02.716Z,96088.28
2022-11-28T13:34:30.976Z,96082.78
2022-11-28T13:40:07.675Z,96073.53
2022-11-28T13:43:07.994Z,96077.81
2022-11-28T13:45:40.343Z,96081.38
2022-11-28T13:49:13.075Z,96080.00
2022-11-28T13:51:30.541Z,96087.31
2022-11-28T13:54:22.997Z,96080.13
2022-11-28T13:57:27.051Z,96089.78
2022-11-28T14:00:06.149Z,96080.72
2022-11-28T14:02:52.472Z,96076.84
2022-11-28T14:05:32.994Z,96084.69
2022-11-28T14:08:00.837Z,96083.16
2022-11-28T14:10:37.123Z,96087.69
2022-11-28T14:13:28.059Z,96083.81
2022-11-28T14:16:20.215Z,96084.34
2022-11-28T14:18:57.618Z,96079.41
2022-11-28T14:21:31.285Z,96097.34
2022-11-28T14:24:12.406Z,96097.22
2022-11-28T14:26:42.901Z,96097.22
2022-11-28T14:29:23.531Z,96102.16
2022-11-28T14:32:21.915Z,96103.41
2022-11-28T14:34:43.797Z,96102.03
2022-11-28T14:37:19.403Z,96104.38
2022-11-28T14:39:49.769Z,96102.84
2022-11-28T14:42:36.739Z,96110.41
2022-11-28T14:45:42.754Z,96106.00
2022-11-28T14:48:17.505Z,96111.13
2022-11-28T14:50:48.987Z,96110.56
2022-11-28T14:53:33.595Z,96119.38
2022-11-28T14:56:15.691Z,96112.19
2022-11-28T14:58:55.082Z,96114.91
2022-11-28T15:01:38.330Z,96109.13
2022-11-28T15:04:07.521Z,96112.44
2022-11-28T15:06:38.445Z,96117.13
2022-11-28T15:09:16.056Z,96100.59
2022-11-28T15:12:08.159Z,96113.09
2022-11-28T15:14:35.605Z,96112.75
2022-11-28T15:17:05.373Z,96109.97
2022-11-28T15:19:38.948Z,96111.38
2022-11-28T15:22:05.838Z,96109.19
2022-11-28T15:24:38.304Z,96107.78
2022-11-28T15:27:07.662Z,96107.25
2022-11-28T15:29:36.149Z,96109.50
2022-11-28T15:32:03.344Z,96106.69
2022-11-28T15:34:35.210Z,96117.16
2022-11-28T15:37:05.189Z,96110.66
2022-11-28T15:39:39.763Z,96107.47
2022-11-28T15:42:15.826Z,96113.69
2022-11-28T15:44:43.135Z,96110.78
2022-11-28T15:47:21.391Z,96119.84
2022-11-28T15:50:22.265Z,96110.91
2022-11-28T15:53:04.201Z,96124.84
2022-11-28T15:55:32.835Z,96122.78
2022-11-28T15:58:20.925Z,96113.94
2022-11-28T16:01:10.694Z,96118.03
2022-11-28T16:03:54.097Z,96116.38
2022-11-28T16:06:23.099Z,96112.78
2022-11-28T16:08:58.165Z,96111.09
2022-11-28T16:11:27.681Z,96115.75
2022-11-28T16:13:57.499Z,96118.31
2022-11-28T16:16:33.364Z,96120.09
2022-11-28T16:19:08.177Z,96126.66
2022-11-28T16:21:50.724Z,96124.97
2022-11-28T16:24:25.272Z,96119.59
2022-11-28T16:27:04.568Z,96114.13
2022-11-28T16:29:36.173Z,96131.59
2022-11-28T16:32:21.613Z,96123.06
2022-11-28T16:34:53.652Z,96115.91
2022-11-28T16:37:26.692Z,96124.16
2022-11-28T16:40:21.643Z,96125.34
2022-11-28T16:42:55.272Z,96122.88
2022-11-28T16:45:24.589Z,96127.66
2022-11-28T16:48:08.771Z,96134.28
2022-11-28T16:50:37.132Z,96132.13
2022-11-28T16:53:05.102Z,96131.59
2022-11-28T16:55:34.725Z,96132.44
2022-11-28T16:58:15.099Z,96135.59
2022-11-28T17:00:51.742Z,96137.25
2022-11-28T17:03:50.134Z,96143.31
2022-11-28T17:06:23.088Z,96140.56
2022-11-28T17:08:50.421Z,96136.72
2022-11-28T17:11:19.998Z,96139.91
2022-11-28T17:13:46.674Z,96138.38
2022-11-28T17:16:19.941Z,96135.91
2022-11-28T17:18:47.337Z,96143.50
2022-11-28T17:21:16.585Z,96135.88
2022-11-28T17:23:43.235Z,96141.91
2022-11-28T17:26:11.098Z,96141.06
2022-11-28T17:28:38.290Z,96138.84
2022-11-28T17:31:05.149Z,96144.63
2022-11-28T17:33:31.791Z,96144.88
2022-11-28T17:36:03.881Z,96145.44
2022-11-28T17:38:32.958Z,96145.97
2022-11-28T17:41:01.935Z,96146.66
2022-11-28T17:43:28.705Z,96151.78
2022-11-28T17:45:55.195Z,96146.84
2022-11-28T17:48:21.594Z,96145.78
2022-11-28T17:50:49.786Z,96145.56
2022-11-28T17:53:18.990Z,96152.84
2022-11-28T17:55:47.178Z,96150.25
2022-11-28T17:58:17.200Z,96151.88
2022-11-28T18:00:44.091Z,96156.81
2022-11-28T18:03:14.381Z,96150.47
2022-11-28T18:05:43.695Z,96154.47
2022-11-28T18:08:10.463Z,96159.28
2022-11-28T18:10:37.084Z,96158.72
2022-11-28T18:13:04.472Z,96155.03
2022-11-28T18:15:32.547Z,96154.13
2022-11-28T18:17:59.354Z,96151.34
2022-11-28T18:20:28.748Z,96148.56
2022-11-28T18:22:56.488Z,96148.53
2022-11-28T18:25:24.022Z,96147.69
2022-11-28T18:27:50.582Z,96151.09
2022-11-28T18:30:17.474Z,96150.13
2022-11-28T18:32:44.120Z,96151.38
2022-11-28T18:35:11.571Z,96150.97
2022-11-28T18:37:38.906Z,96152.28
2022-11-28T18:40:09.113Z,96154.91
2022-11-28T18:42:36.162Z,96153.00
2022-11-28T18:45:02.667Z,96155.47
2022-11-28T18:47:34.833Z,96155.16
2022-11-28T18:50:01.373Z,96163.44
2022-11-28T18:52:27.950Z,96161.06
2022-11-28T18:54:54.310Z,96160.38
2022-11-28T18:57:20.987Z,96167.28
2022-11-28T18:59:54.343Z,96168.09
2022-11-28T19:02:23.770Z,96163.97
2022-11-28T19:04:50.203Z,96167.53
2022-11-28T19:07:16.662Z,96169.16
2022-11-28T19:09:44.951Z,96170.72
2022-11-28T19:12:11.841Z,96166.50
2022-11-28T19:14:38.396Z,96166.16
2022-11-28T19:17:05.459Z,96172.53
2022-11-28T19:19:33.779Z,96179.25
2022-11-28T19:22:00.129Z,96175.81
2022-11-28T19:24:26.759Z,96174.41
2022-11-28T19:26:53.198Z,96171.94
2022-11-28T19:29:19.629Z,96176.75
2022-11-28T19:31:48.517Z,96171.94
2022-11-28T19:34:17.430Z,96172.34
2022-11-28T19:36:49.982Z,96180.44
2022-11-28T19:39:24.124Z,96179.88
2022-11-28T19:41:52.987Z,96175.53
2022-11-28T19:44:21.091Z,96177.66
2022-11-28T19:46:47.931Z,96186.22
2022-11-28T19:49:21.017Z,96189.00
2022-11-28T19:51:48.231Z,96186.00
2022-11-28T19:54:15.782Z,96198.81
2022-11-28T19:56:42.364Z,96179.16
2022-11-28T19:59:10.476Z,96192.34
2022-11-28T20:01:38.645Z,96193.72
2022-11-28T20:04:05.192Z,96189.97
2022-11-28T20:08:10.522Z,96192.03
2022-11-28T20:10:38.737Z,96191.22
2022-11-28T20:13:06.372Z,96197.25
2022-11-28T20:15:36.862Z,96202.75
2022-11-28T20:18:03.542Z,96200.44
2022-11-28T20:20:30.069Z,96203.91
2022-11-28T20:22:57.671Z,96195.00
2022-11-28T20:25:24.063Z,96198.72
2022-11-28T20:27:50.407Z,96200.63
2022-11-28T20:30:17.392Z,96198.13
2022-11-28T20:32:43.919Z,96202.25
2022-11-28T20:35:10.376Z,96210.19
2022-11-28T20:37:39.044Z,96218.38
2022-11-28T20:40:07.699Z,96209.53
2022-11-28T20:42:39.587Z,96218.03
2022-11-28T20:45:07.165Z,96223.16
2022-11-28T20:47:37.514Z,96222.19
2022-11-28T20:50:07.085Z,96219.47
2022-11-28T20:52:33.718Z,96223.03
2022-11-28T20:55:00.277Z,96218.22
2022-11-28T20:57:27.037Z,96215.38
2022-11-28T20:59:57.375Z,96219.25
2022-11-28T21:02:23.883Z,96220.91
2022-11-28T21:04:50.333Z,96220.59
2022-11-28T21:07:17.006Z,96210.94
2022-11-28T21:09:43.866Z,96209.53
2022-11-28T21:12:10.504Z,96211.28
2022-11-28T21:14:36.929Z,96214.97
2022-11-28T21:17:03.511Z,96211.50
2022-11-28T21:19:29.859Z,96216.41
2022-11-28T21:21:56.390Z,96213.44
2022-11-28T21:24:22.811Z,96219.13
2022-11-28T21:26:53.548Z,96219.53
2022-11-28T21:29:22.390Z,96219.19
2022-11-28T21:31:48.804Z,96212.31
2022-11-28T21:34:16.859Z,96215.63
2022-11-28T21:36:43.755Z,96215.66
2022-11-28T21:39:14.000Z,96215.16
2022-11-28T21:41:40.676Z,96221.13
2022-11-28T21:44:07.180Z,96219.81
2022-11-28T21:46:33.756Z,96214.94
2022-11-28T21:49:00.346Z,96224.25
2022-11-28T21:51:28.764Z,96223.19
2022-11-28T21:53:57.202Z,96215.81
2022-11-28T21:56:23.926Z,96218.22
2022-11-28T21:58:50.312Z,96223.69
2022-11-28T22:01:16.916Z,96230.63
2022-11-28T22:03:43.738Z,96230.56
2022-11-28T22:06:16.840Z,96235.56
2022-11-28T22:08:43.960Z,96234.34
2022-11-28T22:11:13.063Z,96232.69
2022-11-28T22:13:42.052Z,96231.72
2022-11-28T22:16:20.658Z,96230.25
2022-11-28T22:18:48.609Z,96235.97
2022-11-28T22:24:02.701Z,96238.16
2022-11-28T22:26:29.092Z,96241.75
2022-11-28T22:28:55.572Z,96242.69
2022-11-28T22:31:22.520Z,96245.75
2022-11-28T22:33:50.241Z,96249.59
2022-11-28T22:36:19.102Z,96247.75
2022-11-28T22:38:47.484Z,96246.81
2022-11-28T22:41:24.780Z,96250.47
2022-11-28T22:43:56.533Z,96250.97
2022-11-28T22:46:22.970Z,96253.53
2022-11-28T22:48:50.441Z,96255.13
2022-11-28T22:51:20.969Z,96253.34
2022-11-28T22:53:47.481Z,96257.34
2022-11-28T22:56:15.525Z,96246.97
2022-11-28T22:58:43.878Z,96248.81
2022-11-28T23:01:22.106Z,96249.34
2022-11-28T23:03:48.738Z,96248.25
2022-11-28T23:06:18.662Z,96251.75
2022-11-28T23:08:45.334Z,96248.03
2022-11-28T23:11:17.533Z,96257.78
2022-11-28T23:13:44.803Z,96250.88
2022-11-28T23:16:20.182Z,96252.81
2022-11-28T23:18:49.202Z,96254.88
2022-11-28T23:21:17.726Z,96257.91
2022-11-28T23:23:45.650Z,96257.66
2022-11-28T23:26:14.459Z,96255.59
2022-11-28T23:28:41.627Z,96256.09
2022-11-28T23:31:11.521Z,96250.97
2022-11-28T23:33:38.340Z,96251.66
2022-11-28T23:36:37.008Z,96255.50
2022-11-28T23:39:21.719Z,96256.84
2022-11-28T23:41:49.001Z,96252.09
2022-11-28T23:44:17.269Z,96250.69
2022-11-28T23:46:44.232Z,96248.56
2022-11-28T23:49:11.556Z,96247.94
2022-11-28T23:51:40.170Z,96246.97
2022-11-28T23:54:07.985Z,96242.31
2022-11-28T23:56:36.182Z,96240.78
2022-11-28T23:59:04.640Z,96244.97
